Time;durP1;ratioP1;P1;durP2;ratioP2;P2;SDS_P1;SDS_P2;PMS_P1;PMS_P2;Temp;Humidity;BMP_temperature;BMP_pressure;BME280_temperature;BME280_humidity;BME280_pressure;Samples;Min_cycle;Max_cycle;Signal;HPM_P1;HPM_P2
2021/06/11 00:01:41;;;;;;;362.67;343.40;;;18.90;99.90;;;;;;6294622;22;20714;-81
2021/06/11 00:04:07;;;;;;;409.90;388.30;;;18.90;99.90;;;;;;6294602;22;20434;-79
2021/06/11 00:06:35;;;;;;;455.00;431.17;;;18.80;99.90;;;;;;6292021;22;20474;-81
2021/06/11 00:09:03;;;;;;;493.93;466.93;;;18.80;99.90;;;;;;6291498;22;20438;-82
2021/06/11 00:11:29;;;;;;;386.20;367.07;;;18.80;99.90;;;;;;6292009;22;20407;-82
2021/06/11 00:13:55;;;;;;;301.07;284.53;;;18.80;99.90;;;;;;6291824;22;20467;-82
2021/06/11 00:16:22;;;;;;;418.67;397.97;;;18.70;99.90;;;;;;6293093;22;20436;-81
2021/06/11 00:18:50;;;;;;;436.70;414.43;;;18.70;99.90;;;;;;6294037;22;20431;-81
2021/06/11 00:21:16;;;;;;;343.70;326.17;;;18.70;99.90;;;;;;6294933;22;20418;-81
2021/06/11 00:23:42;;;;;;;378.70;359.80;;;18.70;99.90;;;;;;6295221;22;20407;-81
2021/06/11 00:26:09;;;;;;;341.53;323.77;;;18.60;99.90;;;;;;6293938;22;20526;-81
2021/06/11 00:28:35;;;;;;;279.30;264.47;;;18.60;99.90;;;;;;6295021;22;20414;-82
2021/06/11 00:31:01;;;;;;;358.70;340.20;;;18.50;99.90;;;;;;6294788;22;20411;-81
2021/06/11 00:33:28;;;;;;;303.57;287.90;;;18.50;99.90;;;;;;6294644;22;20426;-82
2021/06/11 00:35:55;;;;;;;295.83;280.27;;;18.50;99.90;;;;;;6293518;22;20434;-82
2021/06/11 00:38:22;;;;;;;293.33;277.27;;;18.50;99.90;;;;;;6292229;22;20532;-82
2021/06/11 00:40:48;;;;;;;231.07;218.23;;;18.40;99.90;;;;;;6289686;22;20474;-82
2021/06/11 00:43:14;;;;;;;344.50;327.10;;;18.40;99.90;;;;;;6284935;22;20419;-81
2021/06/11 00:45:42;;;;;;;348.47;330.60;;;18.40;99.90;;;;;;6287256;22;20489;-82
2021/06/11 00:48:09;;;;;;;307.23;291.70;;;18.40;99.90;;;;;;6286519;22;20444;-83
2021/06/11 00:50:36;;;;;;;276.77;262.20;;;18.40;99.90;;;;;;6291489;22;20454;-82
2021/06/11 00:53:07;;;;;;;220.00;207.80;;;18.30;99.90;;;;;;6288620;22;20415;-83
2021/06/11 00:55:33;;;;;;;330.43;313.00;;;18.30;99.90;;;;;;6288748;22;20476;-82
2021/06/11 00:58:00;;;;;;;317.43;301.37;;;18.30;99.90;;;;;;6291929;22;20434;-82
2021/06/11 01:00:26;;;;;;;301.67;286.10;;;18.30;99.90;;;;;;6289906;22;20427;-81
2021/06/11 01:02:53;;;;;;;198.30;186.90;;;18.20;99.90;;;;;;6290787;22;20403;-83
2021/06/11 01:05:20;;;;;;;286.43;271.87;;;18.20;99.90;;;;;;6291838;22;20438;-81
2021/06/11 01:07:49;;;;;;;239.93;227.07;;;18.10;99.90;;;;;;6287587;22;20533;-81
2021/06/11 01:10:18;;;;;;;186.80;175.73;;;18.10;99.90;;;;;;6288553;22;20557;-82
2021/06/11 01:12:45;;;;;;;293.93;279.03;;;18.00;99.90;;;;;;6287234;22;20713;-82
2021/06/11 01:15:12;;;;;;;158.07;148.13;;;18.00;99.90;;;;;;6287533;22;20628;-81
2021/06/11 01:17:39;;;;;;;215.40;203.77;;;18.00;99.90;;;;;;6291519;22;20407;-81
2021/06/11 01:20:08;;;;;;;136.43;127.50;;;17.90;99.90;;;;;;6293679;22;20462;-82
2021/06/11 01:22:48;;;;;;;155.77;146.53;;;17.90;99.90;;;;;;6294683;22;20490;-82
2021/06/11 01:25:18;;;;;;;113.93;106.03;;;17.80;99.90;;;;;;6293878;22;20502;-82
2021/06/11 01:27:46;;;;;;;147.87;138.97;;;17.80;99.90;;;;;;6293664;22;20470;-81
2021/06/11 01:30:22;;;;;;;126.27;118.07;;;17.80;99.90;;;;;;6294122;22;20494;-81
2021/06/11 01:32:51;;;;;;;74.23;67.87;;;17.70;99.90;;;;;;6295034;22;20478;-80
2021/06/11 01:35:21;;;;;;;128.70;120.13;;;17.70;99.90;;;;;;6294288;22;20501;-81
2021/06/11 01:37:52;;;;;;;129.40;121.10;;;17.60;99.90;;;;;;6293342;22;20780;-81
2021/06/11 01:40:19;;;;;;;105.77;98.33;;;17.60;99.90;;;;;;6293381;22;20455;-81
2021/06/11 01:42:48;;;;;;;97.97;91.17;;;17.60;99.90;;;;;;6294052;22;20403;-81
2021/06/11 01:45:15;;;;;;;98.53;91.60;;;17.60;99.90;;;;;;6293376;22;20506;-81
2021/06/11 01:47:44;;;;;;;44.50;38.93;;;17.50;99.90;;;;;;6293461;22;20406;-79
2021/06/11 01:50:13;;;;;;;102.90;95.80;;;17.50;99.90;;;;;;6294153;22;20508;-81
2021/06/11 01:52:40;;;;;;;44.03;39.27;;;17.50;99.90;;;;;;6293584;22;20485;-80
2021/06/11 01:55:08;;;;;;;78.77;72.73;;;17.50;99.90;;;;;;6288374;22;20486;-79
2021/06/11 01:57:35;;;;;;;45.87;41.13;;;17.40;99.90;;;;;;6292151;22;20998;-81
2021/06/11 02:00:05;;;;;;;39.97;35.03;;;17.40;99.90;;;;;;6293580;22;20431;-81
2021/06/11 02:02:31;;;;;;;62.63;57.20;;;17.30;99.90;;;;;;6294697;22;20439;-81
2021/06/11 02:04:59;;;;;;;43.03;38.57;;;17.30;99.90;;;;;;6292350;22;20524;-81
2021/06/11 02:07:26;;;;;;;31.20;21.17;;;17.30;99.90;;;;;;6292821;22;20490;-81
2021/06/11 02:09:53;;;;;;;74.63;69.00;;;17.30;99.90;;;;;;6291967;22;20494;-82
2021/06/11 02:12:19;;;;;;;64.97;59.80;;;17.30;99.90;;;;;;6292489;22;20465;-81
2021/06/11 02:14:46;;;;;;;81.60;75.47;;;17.30;99.90;;;;;;6293261;22;20474;-82
2021/06/11 02:17:15;;;;;;;49.63;45.30;;;17.30;99.90;;;;;;6293644;22;20470;-82
2021/06/11 02:19:42;;;;;;;37.87;33.93;;;17.10;99.90;;;;;;6293576;22;20522;-82
2021/06/11 02:22:10;;;;;;;34.43;28.50;;;17.10;99.90;;;;;;6293837;22;20402;-82
2021/06/11 02:24:37;;;;;;;30.73;23.87;;;17.10;99.90;;;;;;6293319;22;20486;-82
2021/06/11 02:27:06;;;;;;;28.80;18.50;;;17.10;99.90;;;;;;6293189;22;20471;-80
2021/06/11 02:29:34;;;;;;;36.23;28.93;;;17.10;99.90;;;;;;6294754;22;20470;-81
2021/06/11 02:32:00;;;;;;;27.60;16.93;;;17.10;99.90;;;;;;6294916;22;20386;-87
2021/06/11 02:34:28;;;;;;;32.10;23.53;;;17.10;99.90;;;;;;6334545;22;20400;-85
2021/06/11 02:36:54;;;;;;;33.37;22.53;;;17.00;99.90;;;;;;6315622;22;20489;-84
2021/06/11 02:39:21;;;;;;;32.33;23.10;;;17.00;99.90;;;;;;6311062;22;20450;-85
2021/06/11 02:41:51;;;;;;;27.20;16.20;;;17.00;99.90;;;;;;6309040;22;20402;-85
2021/06/11 02:44:22;;;;;;;26.97;17.70;;;17.00;99.90;;;;;;6279500;22;20391;-86
2021/06/11 02:46:51;;;;;;;29.63;19.80;;;17.00;99.90;;;;;;6281437;22;20442;-84
2021/06/11 02:49:22;;;;;;;26.00;13.97;;;17.00;99.90;;;;;;6276847;22;20409;-84
2021/06/11 02:51:53;;;;;;;26.57;12.43;;;16.90;99.90;;;;;;6277543;22;20469;-84
2021/06/11 02:54:23;;;;;;;23.70;13.10;;;16.90;99.90;;;;;;6277768;22;20398;-86
2021/06/11 02:56:53;;;;;;;24.97;16.07;;;16.90;99.90;;;;;;6277699;22;20410;-84
2021/06/11 02:59:24;;;;;;;26.17;14.87;;;16.90;99.90;;;;;;6278403;22;20486;-84
2021/06/11 03:01:54;;;;;;;22.60;13.23;;;16.90;99.90;;;;;;6279525;22;20785;-83
2021/06/11 03:04:23;;;;;;;23.87;13.97;;;16.90;99.90;;;;;;6279099;22;20407;-84
2021/06/11 03:06:53;;;;;;;22.47;11.27;;;16.80;99.90;;;;;;6278554;22;20434;-85
2021/06/11 03:09:22;;;;;;;23.53;11.23;;;16.80;99.90;;;;;;6278743;22;20411;-85
2021/06/11 03:11:50;;;;;;;24.00;12.10;;;16.80;99.90;;;;;;6278467;22;20411;-85
2021/06/11 03:14:18;;;;;;;24.03;11.87;;;16.80;99.90;;;;;;6278583;22;20497;-86
2021/06/11 03:16:48;;;;;;;20.00;8.80;;;16.80;99.90;;;;;;6279094;22;20421;-85
2021/06/11 03:19:17;;;;;;;23.57;11.00;;;16.80;99.90;;;;;;6277948;22;20903;-84
2021/06/11 03:21:47;;;;;;;21.80;11.47;;;16.80;99.90;;;;;;6279344;22;20432;-85
2021/06/11 03:24:25;;;;;;;23.83;11.07;;;16.70;99.90;;;;;;6279172;22;20990;-84
2021/06/11 03:26:53;;;;;;;20.80;10.13;;;16.70;99.90;;;;;;6279549;22;20427;-84
2021/06/11 03:29:23;;;;;;;21.60;9.63;;;16.70;99.90;;;;;;6279425;22;20406;-84
2021/06/11 03:31:52;;;;;;;22.20;9.33;;;16.70;99.90;;;;;;6280134;22;20403;-85
2021/06/11 03:34:23;;;;;;;20.07;9.43;;;16.70;99.90;;;;;;6279523;22;20413;-84
2021/06/11 03:36:51;;;;;;;21.40;9.77;;;16.70;99.90;;;;;;6279971;22;20448;-85
2021/06/11 03:39:25;;;;;;;19.67;9.30;;;16.70;99.90;;;;;;6279118;22;20485;-86
2021/06/11 03:41:53;;;;;;;20.67;9.80;;;16.70;99.90;;;;;;6279565;22;20382;-86
2021/06/11 03:44:21;;;;;;;20.57;8.73;;;16.70;99.90;;;;;;6278738;22;20403;-85
2021/06/11 03:46:49;;;;;;;24.50;9.50;;;16.70;99.90;;;;;;6278249;22;20439;-85
2021/06/11 03:49:18;;;;;;;19.87;8.67;;;16.80;99.90;;;;;;6278914;22;20750;-83
2021/06/11 03:51:45;;;;;;;19.17;8.97;;;16.80;99.90;;;;;;6278206;22;20407;-84
2021/06/11 03:54:13;;;;;;;21.57;8.60;;;16.80;99.90;;;;;;6278731;22;20517;-85
2021/06/11 03:56:43;;;;;;;19.57;8.73;;;16.80;99.90;;;;;;6278358;22;20928;-84
2021/06/11 03:59:10;;;;;;;18.47;8.07;;;16.80;99.90;;;;;;6278792;22;20403;-84
2021/06/11 04:01:42;;;;;;;18.47;8.07;;;16.90;99.90;;;;;;6280400;22;20415;-84
2021/06/11 04:04:08;;;;;;;19.20;9.27;;;16.90;99.90;;;;;;6283314;22;20427;-84
2021/06/11 04:06:37;;;;;;;20.47;8.93;;;17.00;99.90;;;;;;6283482;22;20529;-85
2021/06/11 04:09:06;;;;;;;20.60;9.27;;;17.00;99.90;;;;;;6283377;22;20425;-84
2021/06/11 04:11:37;;;;;;;19.50;8.97;;;17.00;99.90;;;;;;6283277;22;20419;-84
2021/06/11 04:14:07;;;;;;;20.90;9.70;;;17.10;99.90;;;;;;6283799;22;20430;-84
2021/06/11 04:16:40;;;;;;;19.13;8.97;;;17.10;99.90;;;;;;6284498;22;20395;-84
2021/06/11 04:19:10;;;;;;;19.00;9.23;;;17.10;99.90;;;;;;6284159;22;20472;-85
2021/06/11 04:21:38;;;;;;;20.23;10.00;;;17.20;99.90;;;;;;6283511;22;20749;-85
2021/06/11 04:24:08;;;;;;;19.50;8.93;;;17.20;99.90;;;;;;6284321;22;20445;-85
2021/06/11 04:26:35;;;;;;;20.70;10.37;;;17.30;99.90;;;;;;6285199;22;20502;-86
2021/06/11 04:29:08;;;;;;;23.50;10.20;;;17.30;99.90;;;;;;6285529;22;20410;-86
2021/06/11 04:31:35;;;;;;;21.93;10.57;;;17.40;99.90;;;;;;6287418;22;20449;-86
2021/06/11 04:34:01;;;;;;;720.83;677.45;;;17.50;99.90;;;;;;6288561;22;20477;-83
2021/06/11 04:36:28;;;;;;;32.30;27.07;;;17.50;99.90;;;;;;6279299;22;20255;-81
2021/06/11 04:38:59;;;;;;;21.63;11.27;;;17.60;99.90;;;;;;6279880;22;20411;-83
2021/06/11 04:41:27;;;;;;;22.00;11.40;;;17.70;99.90;;;;;;6279621;22;20497;-83
2021/06/11 04:43:56;;;;;;;21.20;11.00;;;17.80;99.90;;;;;;6277051;22;20967;-82
2021/06/11 04:46:23;;;;;;;22.70;11.00;;;17.90;99.90;;;;;;6277085;22;20488;-82
2021/06/11 04:48:50;;;;;;;25.27;11.53;;;17.90;99.90;;;;;;6277298;22;20409;-82
2021/06/11 04:51:16;;;;;;;31.33;13.50;;;18.00;99.90;;;;;;6276709;22;20493;-83
2021/06/11 04:53:43;;;;;;;26.67;13.63;;;18.00;99.90;;;;;;6277234;22;20435;-83
2021/06/11 04:56:10;;;;;;;25.07;11.83;;;18.10;99.90;;;;;;6277533;22;20426;-82
2021/06/11 04:58:37;;;;;;;25.00;12.10;;;18.10;99.90;;;;;;6278402;22;20431;-83
2021/06/11 05:01:03;;;;;;;27.00;17.87;;;18.20;99.90;;;;;;6278713;22;20417;-82
2021/06/11 05:03:31;;;;;;;23.67;12.00;;;18.30;99.90;;;;;;6277329;22;20476;-81
2021/06/11 05:05:58;;;;;;;23.57;12.80;;;18.30;99.90;;;;;;6277624;22;20518;-82
2021/06/11 05:08:24;;;;;;;23.37;11.90;;;18.40;99.90;;;;;;6295442;22;20439;-81
2021/06/11 05:10:52;;;;;;;32.17;28.87;;;18.50;99.90;;;;;;6300448;22;20415;-82
2021/06/11 05:13:18;;;;;;;24.40;12.60;;;18.60;99.90;;;;;;6297446;22;20427;-82
2021/06/11 05:15:44;;;;;;;22.47;11.53;;;18.70;99.90;;;;;;6297626;22;20422;-83
2021/06/11 05:18:11;;;;;;;21.53;11.70;;;18.80;99.90;;;;;;6292564;22;20468;-83
2021/06/11 05:20:39;;;;;;;23.93;12.63;;;18.80;99.90;;;;;;6288352;22;20472;-82
2021/06/11 05:23:06;;;;;;;26.30;11.90;;;18.90;99.90;;;;;;6291336;22;20455;-82
2021/06/11 05:25:32;;;;;;;21.43;10.60;;;18.90;99.90;;;;;;6291843;22;20525;-81
2021/06/11 05:27:59;;;;;;;25.50;12.30;;;19.00;99.90;;;;;;6292656;22;20431;-83
2021/06/11 05:30:27;;;;;;;24.30;12.80;;;19.10;99.90;;;;;;6289263;22;20410;-83
2021/06/11 05:32:54;;;;;;;28.87;22.77;;;19.10;99.90;;;;;;6287796;22;20442;-82
2021/06/11 05:35:21;;;;;;;24.07;11.17;;;19.00;99.90;;;;;;6287450;22;20403;-82
2021/06/11 05:37:49;;;;;;;22.80;12.57;;;19.10;99.90;;;;;;6286987;22;20415;-82
2021/06/11 05:40:16;;;;;;;26.63;13.50;;;19.30;99.90;;;;;;6284937;22;20421;-82
2021/06/11 05:42:43;;;;;;;22.27;12.30;;;19.40;99.90;;;;;;6286754;22;20484;-83
2021/06/11 05:45:09;;;;;;;26.30;12.53;;;19.40;99.90;;;;;;6287630;22;20481;-83
2021/06/11 05:47:40;;;;;;;24.57;12.97;;;19.50;99.90;;;;;;6287633;22;20911;-82
2021/06/11 05:50:09;;;;;;;26.30;12.60;;;19.50;99.90;;;;;;6285819;22;20419;-81
2021/06/11 05:52:36;;;;;;;24.67;13.67;;;19.50;99.90;;;;;;6287533;22;20431;-81
2021/06/11 05:55:05;;;;;;;37.40;33.30;;;19.60;99.90;;;;;;6285454;22;20540;-81
2021/06/11 05:57:31;;;;;;;23.73;12.37;;;19.60;99.90;;;;;;6286858;22;20406;-82
2021/06/11 05:59:57;;;;;;;30.50;22.50;;;19.70;99.90;;;;;;6285388;22;20471;-82
2021/06/11 06:02:24;;;;;;;23.70;11.57;;;19.70;99.90;;;;;;6286672;22;20439;-81
2021/06/11 06:04:51;;;;;;;32.57;22.20;;;19.90;99.90;;;;;;6286880;22;20425;-81
2021/06/11 06:07:17;;;;;;;37.50;33.53;;;19.90;99.90;;;;;;6287437;22;20478;-82
2021/06/11 06:09:44;;;;;;;26.37;13.60;;;20.00;99.90;;;;;;6284062;22;20919;-81
2021/06/11 06:12:12;;;;;;;29.20;16.30;;;20.00;99.90;;;;;;6282420;22;20478;-81
2021/06/11 06:14:39;;;;;;;26.87;13.77;;;20.10;99.90;;;;;;6286118;22;20432;-83
2021/06/11 06:17:07;;;;;;;31.13;26.97;;;20.20;99.90;;;;;;6282206;22;20470;-81
2021/06/11 06:19:34;;;;;;;27.90;15.83;;;20.20;99.90;;;;;;6278853;22;20407;-81
2021/06/11 06:22:00;;;;;;;25.07;14.77;;;20.20;99.90;;;;;;6280001;22;20438;-81
2021/06/11 06:24:26;;;;;;;30.87;18.83;;;20.40;99.90;;;;;;6280106;22;20415;-81
2021/06/11 06:26:53;;;;;;;28.67;19.27;;;20.40;99.90;;;;;;6277056;22;20467;-80
2021/06/11 06:29:20;;;;;;;30.57;22.30;;;20.40;99.90;;;;;;6278037;22;20421;-80
2021/06/11 06:31:47;;;;;;;30.80;15.70;;;20.50;99.90;;;;;;6281102;22;20450;-81
2021/06/11 06:34:14;;;;;;;31.33;16.93;;;20.70;99.90;;;;;;6282897;22;20458;-81
2021/06/11 06:36:40;;;;;;;30.17;20.63;;;20.70;99.90;;;;;;6283816;22;20407;-81
2021/06/11 06:39:08;;;;;;;26.17;14.43;;;20.80;99.90;;;;;;6283768;22;20932;-81
2021/06/11 06:41:35;;;;;;;25.70;13.10;;;20.90;99.90;;;;;;6283808;22;20425;-80
2021/06/11 06:44:01;;;;;;;28.70;13.73;;;21.00;99.90;;;;;;6283333;22;20477;-84
2021/06/11 06:46:29;;;;;;;27.70;14.50;;;21.10;99.90;;;;;;6283099;22;20992;-81
2021/06/11 06:48:56;;;;;;;43.17;37.17;;;21.20;99.90;;;;;;6283802;22;20411;-82
2021/06/11 06:51:26;;;;;;;29.20;14.00;;;21.30;99.90;;;;;;6284667;22;20765;-80
2021/06/11 06:53:52;;;;;;;28.37;15.57;;;21.40;99.90;;;;;;6283525;22;20438;-80
2021/06/11 06:56:21;;;;;;;33.23;19.70;;;21.50;99.90;;;;;;6283005;22;20406;-80
2021/06/11 06:58:47;;;;;;;27.40;11.33;;;21.50;99.90;;;;;;6283345;22;21004;-81
2021/06/11 07:01:13;;;;;;;31.63;16.37;;;21.60;99.90;;;;;;6286700;22;20433;-80
2021/06/11 07:03:41;;;;;;;28.73;13.70;;;21.70;99.90;;;;;;6289625;22;20430;-81
2021/06/11 07:06:07;;;;;;;27.80;16.73;;;21.90;99.90;;;;;;6289716;22;21167;-81
2021/06/11 07:08:34;;;;;;;34.20;27.03;;;22.00;99.90;;;;;;6289587;22;20419;-81
2021/06/11 07:11:01;;;;;;;38.70;32.47;;;22.10;99.90;;;;;;6289883;22;20407;-81
2021/06/11 07:13:32;;;;;;;33.30;24.83;;;22.10;99.90;;;;;;6288503;22;20455;-82
2021/06/11 07:15:58;;;;;;;27.70;12.50;;;22.20;99.90;;;;;;6289344;22;20387;-81
2021/06/11 07:18:25;;;;;;;112.83;105.07;;;22.30;99.90;;;;;;6289363;22;20475;-82
2021/06/11 07:20:53;;;;;;;32.13;24.33;;;22.40;99.90;;;;;;6291728;22;20472;-81
2021/06/11 07:23:19;;;;;;;32.23;21.33;;;22.60;99.90;;;;;;6291619;22;20457;-81
2021/06/11 07:25:45;;;;;;;41.53;32.70;;;22.70;99.90;;;;;;6299716;22;20555;-80
2021/06/11 07:28:12;;;;;;;61.30;55.70;;;22.80;99.90;;;;;;6295276;22;20478;-79
2021/06/11 07:30:39;;;;;;;31.87;17.87;;;22.80;99.90;;;;;;6290159;22;20413;-78
2021/06/11 07:33:05;;;;;;;432.27;411.03;;;23.00;99.90;;;;;;6290885;22;20441;-79
2021/06/11 07:35:32;;;;;;;58.10;52.57;;;23.00;99.90;;;;;;6290991;22;20468;-78
2021/06/11 07:37:59;;;;;;;85.53;78.73;;;23.10;99.90;;;;;;6290275;22;20425;-80
2021/06/11 07:40:26;;;;;;;39.40;29.23;;;23.20;99.90;;;;;;6287458;22;20410;-81
2021/06/11 07:42:53;;;;;;;171.33;160.47;;;23.30;99.90;;;;;;6287592;22;20485;-79
2021/06/11 07:45:19;;;;;;;44.97;31.53;;;23.40;99.90;;;;;;6284544;22;20417;-79
2021/06/11 07:47:46;;;;;;;35.00;20.10;;;23.50;99.90;;;;;;6287695;22;20445;-80
2021/06/11 07:50:12;;;;;;;48.63;43.00;;;23.70;99.90;;;;;;6288391;22;20419;-81
2021/06/11 07:52:39;;;;;;;38.77;30.20;;;23.80;99.90;;;;;;6289024;22;20427;-81
2021/06/11 07:55:09;;;;;;;82.07;75.67;;;23.90;99.90;;;;;;6285231;22;20490;-82
2021/06/11 07:57:35;;;;;;;231.67;216.37;;;24.00;99.90;;;;;;6287139;22;20429;-79
2021/06/11 08:00:03;;;;;;;79.60;72.93;;;24.20;99.90;;;;;;6287911;22;20434;-82
2021/06/11 08:02:29;;;;;;;36.70;25.63;;;24.30;99.90;;;;;;6283295;22;20502;-80
2021/06/11 08:04:55;;;;;;;32.90;21.70;;;24.40;99.90;;;;;;6279582;22;20438;-78
2021/06/11 08:07:29;;;;;;;31.70;17.10;;;24.50;99.90;;;;;;6284697;22;20528;-81
2021/06/11 08:09:55;;;;;;;44.67;39.23;;;24.70;99.90;;;;;;6282723;22;20408;-81
2021/06/11 08:12:23;;;;;;;138.87;129.93;;;24.90;99.90;;;;;;6284475;22;20494;-81
2021/06/11 08:14:50;;;;;;;26.43;8.90;;;25.20;99.90;;;;;;6285637;22;20756;-82
2021/06/11 08:17:16;;;;;;;65.37;59.77;;;25.50;99.90;;;;;;6285285;22;20402;-81
2021/06/11 08:19:42;;;;;;;54.37;48.73;;;25.70;99.90;;;;;;6284895;22;20470;-81
2021/06/11 08:22:08;;;;;;;891.60;820.87;;;25.90;99.90;;;;;;6284435;22;20399;-81
2021/06/11 08:24:35;;;;;;;1001.33;913.37;;;26.00;99.90;;;;;;6284542;22;20403;-81
2021/06/11 08:27:01;;;;;;;1999.90;999.90;;;26.30;99.90;;;;;;6286359;22;20470;-79
2021/06/11 08:29:29;;;;;;;1999.90;999.90;;;26.50;99.90;;;;;;6284379;22;20470;-80
2021/06/11 08:31:55;;;;;;;1999.90;999.90;;;26.70;99.90;;;;;;6282179;22;20781;-81
2021/06/11 08:34:37;;;;;;;1999.90;999.90;;;26.70;99.90;;;;;;6299534;22;21022;-80
2021/06/11 08:37:37;;;;;;;1999.90;999.90;;;27.10;99.90;;;;;;6310077;22;20875;-79
2021/06/11 08:40:04;;;;;;;1999.90;999.90;;;27.30;99.90;;;;;;6157132;23;20963;-79
2021/06/11 08:42:31;;;;;;;1999.90;999.90;;;27.20;99.90;;;;;;6209061;22;20485;-81
2021/06/11 08:45:04;;;;;;;1999.90;999.90;;;27.20;99.90;;;;;;6311224;22;20727;-80
2021/06/11 08:47:31;;;;;;;1999.90;999.90;;;27.20;99.90;;;;;;6313005;22;20487;-83
2021/06/11 08:49:58;;;;;;;416.73;396.50;;;27.50;99.90;;;;;;6314992;22;20462;-81
2021/06/11 08:52:27;;;;;;;458.10;436.83;;;27.30;99.90;;;;;;6321558;22;20492;-82
2021/06/11 08:54:55;;;;;;;628.60;582.67;;;27.40;99.90;;;;;;6312979;22;20414;-82
2021/06/11 08:57:23;;;;;;;874.47;780.70;;;26.90;99.90;;;;;;6313923;22;20425;-82
2021/06/11 08:59:49;;;;;;;958.43;862.33;;;26.90;99.90;;;;;;6310548;22;20990;-81
2021/06/11 09:02:17;;;;;;;15.17;8.07;;;26.90;99.90;;;;;;6310931;22;20414;-81
2021/06/11 09:04:45;;;;;;;11.00;5.60;;;26.90;99.90;;;;;;6311309;22;20433;-82
2021/06/11 09:07:23;;;;;;;18.23;6.60;;;26.60;99.90;;;;;;6311438;22;21046;-81
2021/06/11 09:09:51;;;;;;;489.77;443.93;;;26.90;99.90;;;;;;6310857;22;20412;-82
2021/06/11 09:12:37;;;;;;;380.43;345.53;;;26.70;99.90;;;;;;6310123;22;20417;-81
2021/06/11 09:15:07;;;;;;;87.33;81.10;;;27.10;99.90;;;;;;6310876;22;20394;-81
2021/06/11 09:17:47;;;;;;;379.27;344.93;;;27.10;99.90;;;;;;6310767;22;20398;-82
2021/06/11 09:20:16;;;;;;;95.53;89.83;;;27.40;99.90;;;;;;6310987;22;20385;-81
2021/06/11 09:22:50;;;;;;;17.60;10.27;;;27.10;99.90;;;;;;6310559;22;20406;-81
2021/06/11 09:25:28;;;;;;;13.60;8.67;;;27.30;99.90;;;;;;6310023;22;20722;-81
2021/06/11 09:27:56;;;;;;;10.47;7.40;;;28.00;99.90;;;;;;6308374;22;20417;-80
2021/06/11 09:30:25;;;;;;;10.80;7.57;;;28.70;99.90;;;;;;6308699;22;20825;-82
2021/06/11 09:32:57;;;;;;;10.03;7.30;;;28.80;99.90;;;;;;6309574;22;20442;-81
2021/06/11 09:35:40;;;;;;;11.60;7.30;;;28.60;99.90;;;;;;6310340;22;20390;-82
2021/06/11 09:38:08;;;;;;;10.43;9.33;;;28.80;99.90;;;;;;6310048;22;20469;-82
2021/06/11 09:40:35;;;;;;;10.40;9.30;;;29.00;99.90;;;;;;6310118;22;20406;-81
2021/06/11 09:43:02;;;;;;;11.27;9.97;;;29.50;99.90;;;;;;6309867;22;20748;-82
2021/06/11 09:45:28;;;;;;;11.87;9.30;;;30.10;99.90;;;;;;6308382;22;20406;-83
2021/06/11 09:47:56;;;;;;;10.63;7.37;;;30.20;99.90;;;;;;6309921;22;20406;-83
2021/06/11 09:50:25;;;;;;;12.53;10.77;;;30.60;99.90;;;;;;6308797;22;20405;-83
2021/06/11 09:52:54;;;;;;;13.80;9.83;;;30.30;99.90;;;;;;6311537;22;20465;-84
2021/06/11 09:55:35;;;;;;;17.10;12.50;;;30.20;99.90;;;;;;6308755;22;20915;-83
2021/06/11 09:58:06;;;;;;;13.80;12.50;;;30.50;99.90;;;;;;6308215;22;20907;-83
2021/06/11 10:00:34;;;;;;;14.77;13.33;;;30.80;99.90;;;;;;6307407;22;20433;-83
2021/06/11 10:03:09;;;;;;;10.60;9.10;;;30.80;99.90;;;;;;6308594;22;20421;-83
2021/06/11 10:05:36;;;;;;;12.57;10.40;;;30.80;99.90;;;;;;6308600;22;20765;-83
2021/06/11 10:08:03;;;;;;;12.13;9.80;;;30.10;99.90;;;;;;6308695;22;20531;-83
2021/06/11 10:10:29;;;;;;;9.70;7.90;;;29.60;99.90;;;;;;6310092;22;20855;-84
2021/06/11 10:12:56;;;;;;;8.80;6.93;;;29.40;99.90;;;;;;6308354;22;20935;-84
2021/06/11 10:15:22;;;;;;;10.87;9.17;;;29.30;99.90;;;;;;6308684;22;20978;-84
2021/06/11 10:17:49;;;;;;;12.00;9.90;;;29.10;99.90;;;;;;6307369;22;20433;-83
2021/06/11 10:20:17;;;;;;;14.40;12.97;;;28.70;99.90;;;;;;6308137;22;20991;-83
2021/06/11 10:22:44;;;;;;;12.80;11.50;;;28.60;99.90;;;;;;6307228;22;21168;-83
2021/06/11 10:25:12;;;;;;;12.43;11.23;;;29.10;99.90;;;;;;6311485;22;20505;-83
2021/06/11 10:27:41;;;;;;;11.07;9.90;;;29.50;99.90;;;;;;6306714;22;20441;-83
2021/06/11 10:30:08;;;;;;;12.60;11.40;;;29.50;99.90;;;;;;6306153;22;20405;-82
2021/06/11 10:32:41;;;;;;;11.17;9.97;;;30.20;99.90;;;;;;6307391;22;20414;-83
2021/06/11 10:35:09;;;;;;;16.57;15.00;;;31.40;99.90;;;;;;6306596;22;20394;-83
2021/06/11 10:37:39;;;;;;;13.40;12.00;;;31.20;99.90;;;;;;6307006;22;20405;-82
2021/06/11 10:40:23;;;;;;;11.83;10.67;;;31.30;99.90;;;;;;6308836;22;20414;-82
2021/06/11 10:42:51;;;;;;;12.83;11.63;;;30.90;99.90;;;;;;6307827;22;20476;-82
2021/06/11 10:45:51;;;;;;;12.50;11.33;;;30.10;99.90;;;;;;6308485;22;20504;-83
2021/06/11 10:48:17;;;;;;;14.50;13.10;;;30.40;99.90;;;;;;6243188;23;20388;-83
2021/06/11 10:50:44;;;;;;;12.13;8.50;;;31.50;99.90;;;;;;6244510;23;20426;-82
2021/06/11 10:53:28;;;;;;;11.60;10.03;;;32.40;99.90;;;;;;6274478;22;20508;-83
2021/06/11 10:56:14;;;;;;;11.07;9.97;;;32.80;99.90;;;;;;6311220;22;20473;-82
2021/06/11 10:58:44;;;;;;;11.17;8.30;;;33.00;99.90;;;;;;6309848;22;20382;-82
2021/06/11 11:01:24;;;;;;;8.90;6.50;;;33.70;99.90;;;;;;6311017;22;20456;-82
2021/06/11 11:03:51;;;;;;;10.30;8.27;;;33.70;99.90;;;;;;6309518;22;20432;-83
2021/06/11 11:06:36;;;;;;;11.27;8.80;;;34.00;99.90;;;;;;6306456;22;20470;-82
2021/06/11 11:09:07;;;;;;;9.50;7.20;;;33.40;99.90;;;;;;6308234;22;20406;-84
2021/06/11 11:11:36;;;;;;;8.70;5.63;;;33.30;99.90;;;;;;6310419;22;20457;-83
2021/06/11 11:14:04;;;;;;;7.30;5.13;;;33.00;99.90;;;;;;6310972;22;20437;-83
2021/06/11 11:16:35;;;;;;;8.60;6.40;;;32.50;99.90;;;;;;6308623;22;20450;-83
2021/06/11 11:19:02;;;;;;;9.43;6.40;;;31.80;99.90;;;;;;6309965;22;20480;-83
2021/06/11 11:21:30;;;;;;;8.17;5.77;;;31.70;99.90;;;;;;6309434;22;20397;-82
2021/06/11 11:23:59;;;;;;;8.80;6.00;;;32.10;99.90;;;;;;6310622;22;20440;-82
2021/06/11 11:26:41;;;;;;;10.03;5.47;;;32.70;99.90;;;;;;6310051;22;20444;-82
2021/06/11 11:29:08;;;;;;;10.40;6.20;;;33.10;99.90;;;;;;6311204;22;20411;-82
2021/06/11 11:31:34;;;;;;;7.50;5.03;;;33.30;99.90;;;;;;6310778;22;20401;-80
2021/06/11 11:34:01;;;;;;;7.97;5.50;;;33.50;99.90;;;;;;6313334;22;20456;-80
2021/06/11 11:36:27;;;;;;;8.60;5.40;;;33.40;99.90;;;;;;6314352;22;20500;-83
2021/06/11 11:38:54;;;;;;;7.37;4.60;;;33.60;99.90;;;;;;6310403;22;20941;-83
2021/06/11 11:41:21;;;;;;;6.53;3.80;;;34.10;99.90;;;;;;6310625;22;20410;-81
2021/06/11 11:43:49;;;;;;;5.90;3.33;;;34.50;99.90;;;;;;6314089;22;20437;-81
2021/06/11 11:46:16;;;;;;;7.43;3.43;;;33.90;99.50;;;;;;6312153;22;20834;-81
2021/06/11 11:48:43;;;;;;;7.03;3.10;;;33.30;99.80;;;;;;6313202;22;20490;-81
2021/06/11 11:51:09;;;;;;;5.97;3.27;;;32.50;98.80;;;;;;6312290;22;20424;-81
2021/06/11 11:53:36;;;;;;;6.67;3.57;;;32.10;99.90;;;;;;6311996;22;20478;-81
2021/06/11 11:56:02;;;;;;;6.23;3.67;;;32.40;99.90;;;;;;6313097;22;20895;-81
2021/06/11 11:58:29;;;;;;;6.43;3.60;;;32.70;99.90;;;;;;6313394;22;20745;-81
2021/06/11 12:00:56;;;;;;;5.20;2.90;;;32.70;99.90;;;;;;6310623;22;20923;-82
2021/06/11 12:03:23;;;;;;;8.20;3.60;;;32.80;99.90;;;;;;6312205;22;20501;-82
2021/06/11 12:05:49;;;;;;;6.60;4.17;;;32.50;99.90;;;;;;6312397;22;20413;-82
2021/06/11 12:08:15;;;;;;;6.03;3.40;;;32.40;99.10;;;;;;6314610;22;20469;-82
2021/06/11 12:10:42;;;;;;;6.40;2.90;;;32.20;99.90;;;;;;6312030;22;20556;-82
2021/06/11 12:13:08;;;;;;;6.67;3.00;;;33.10;99.90;;;;;;6315615;22;20429;-81
2021/06/11 12:15:34;;;;;;;6.07;3.17;;;33.80;99.90;;;;;;6313821;22;20410;-82
2021/06/11 12:18:02;;;;;;;6.43;3.10;;;34.80;99.90;;;;;;6318261;22;20407;-83
2021/06/11 12:20:32;;;;;;;6.70;2.70;;;35.00;99.90;;;;;;6320105;22;20493;-83
2021/06/11 12:22:59;;;;;;;5.43;3.00;;;34.90;99.50;;;;;;6317442;22;20425;-82
2021/06/11 12:25:26;;;;;;;5.93;2.57;;;35.20;95.60;;;;;;6311523;22;20402;-81
2021/06/11 12:27:53;;;;;;;6.50;2.40;;;35.70;96.60;;;;;;6313501;22;20442;-82
2021/06/11 12:30:20;;;;;;;5.93;2.87;;;35.60;93.10;;;;;;6313106;22;20410;-82
2021/06/11 12:32:46;;;;;;;6.60;3.67;;;34.80;91.30;;;;;;6313763;22;20465;-82